sensor_id;sensor_type;location;lat;lon;timestamp;P1;durP1;ratioP1;P2;durP2;ratioP2
21480;SDS011;10902;48.158;8.634;2023-08-01T00:00:50;5.97;;;2.90;;
21480;SDS011;10902;48.158;8.634;2023-08-01T00:03:35;5.80;;;2.85;;
21480;SDS011;10902;48.158;8.634;2023-08-01T00:06:21;7.10;;;2.90;;
21480;SDS011;10902;48.158;8.634;2023-08-01T00:09:07;7.03;;;3.00;;
21480;SDS011;10902;48.158;8.634;2023-08-01T00:11:52;6.88;;;2.83;;
21480;SDS011;10902;48.158;8.634;2023-08-01T00:14:39;6.07;;;2.95;;
21480;SDS011;10902;48.158;8.634;2023-08-01T00:17:25;6.20;;;3.10;;
21480;SDS011;10902;48.158;8.634;2023-08-01T00:20:10;9.18;;;3.20;;
21480;SDS011;10902;48.158;8.634;2023-08-01T00:22:56;7.18;;;3.42;;
21480;SDS011;10902;48.158;8.634;2023-08-01T00:25:42;5.65;;;3.20;;
21480;SDS011;10902;48.158;8.634;2023-08-01T00:28:28;6.07;;;3.28;;
21480;SDS011;10902;48.158;8.634;2023-08-01T00:31:14;7.03;;;3.53;;
21480;SDS011;10902;48.158;8.634;2023-08-01T00:34:00;6.00;;;2.88;;
21480;SDS011;10902;48.158;8.634;2023-08-01T00:36:46;6.45;;;3.28;;
21480;SDS011;10902;48.158;8.634;2023-08-01T00:39:31;7.68;;;3.28;;
21480;SDS011;10902;48.158;8.634;2023-08-01T00:42:17;7.22;;;3.50;;
21480;SDS011;10902;48.158;8.634;2023-08-01T00:45:02;6.28;;;3.30;;
21480;SDS011;10902;48.158;8.634;2023-08-01T00:47:49;5.90;;;3.53;;
21480;SDS011;10902;48.158;8.634;2023-08-01T00:50:35;7.00;;;3.58;;
21480;SDS011;10902;48.158;8.634;2023-08-01T00:53:21;6.93;;;3.58;;
21480;SDS011;10902;48.158;8.634;2023-08-01T00:56:07;6.00;;;3.15;;
21480;SDS011;10902;48.158;8.634;2023-08-01T00:58:53;7.65;;;3.58;;
21480;SDS011;10902;48.158;8.634;2023-08-01T01:01:38;7.60;;;3.63;;
21480;SDS011;10902;48.158;8.634;2023-08-01T01:04:24;6.75;;;3.15;;
21480;SDS011;10902;48.158;8.634;2023-08-01T01:07:10;6.32;;;2.95;;
21480;SDS011;10902;48.158;8.634;2023-08-01T01:09:57;7.22;;;3.90;;
21480;SDS011;10902;48.158;8.634;2023-08-01T01:12:44;7.05;;;3.40;;
21480;SDS011;10902;48.158;8.634;2023-08-01T01:15:29;6.85;;;3.72;;
21480;SDS011;10902;48.158;8.634;2023-08-01T01:18:15;6.45;;;3.67;;
21480;SDS011;10902;48.158;8.634;2023-08-01T01:21:00;6.80;;;3.60;;
21480;SDS011;10902;48.158;8.634;2023-08-01T01:23:46;6.97;;;3.45;;
21480;SDS011;10902;48.158;8.634;2023-08-01T01:26:34;8.10;;;3.83;;
21480;SDS011;10902;48.158;8.634;2023-08-01T01:29:20;6.32;;;3.30;;
21480;SDS011;10902;48.158;8.634;2023-08-01T01:32:09;7.68;;;4.03;;
21480;SDS011;10902;48.158;8.634;2023-08-01T01:34:58;6.93;;;4.10;;
21480;SDS011;10902;48.158;8.634;2023-08-01T01:37:48;6.63;;;4.20;;
21480;SDS011;10902;48.158;8.634;2023-08-01T01:40:34;6.43;;;3.58;;
21480;SDS011;10902;48.158;8.634;2023-08-01T01:43:20;7.22;;;4.03;;
21480;SDS011;10902;48.158;8.634;2023-08-01T01:46:05;8.98;;;3.97;;
21480;SDS011;10902;48.158;8.634;2023-08-01T01:48:51;7.95;;;4.00;;
21480;SDS011;10902;48.158;8.634;2023-08-01T01:51:37;8.85;;;3.83;;
21480;SDS011;10902;48.158;8.634;2023-08-01T01:54:22;7.10;;;4.10;;
21480;SDS011;10902;48.158;8.634;2023-08-01T01:57:08;10.00;;;3.90;;
21480;SDS011;10902;48.158;8.634;2023-08-01T01:59:53;7.15;;;4.15;;
21480;SDS011;10902;48.158;8.634;2023-08-01T02:02:39;6.40;;;3.67;;
21480;SDS011;10902;48.158;8.634;2023-08-01T02:05:24;7.63;;;4.25;;
21480;SDS011;10902;48.158;8.634;2023-08-01T02:08:10;6.93;;;3.60;;
21480;SDS011;10902;48.158;8.634;2023-08-01T02:10:56;6.25;;;3.78;;
21480;SDS011;10902;48.158;8.634;2023-08-01T02:13:43;7.38;;;3.97;;
21480;SDS011;10902;48.158;8.634;2023-08-01T02:16:28;7.70;;;3.63;;
21480;SDS011;10902;48.158;8.634;2023-08-01T02:19:14;9.43;;;4.50;;
21480;SDS011;10902;48.158;8.634;2023-08-01T02:21:59;7.40;;;3.85;;
21480;SDS011;10902;48.158;8.634;2023-08-01T02:24:45;7.03;;;3.72;;
21480;SDS011;10902;48.158;8.634;2023-08-01T02:27:31;6.28;;;3.65;;
21480;SDS011;10902;48.158;8.634;2023-08-01T02:30:16;5.88;;;3.00;;
21480;SDS011;10902;48.158;8.634;2023-08-01T02:33:02;6.93;;;3.75;;
21480;SDS011;10902;48.158;8.634;2023-08-01T02:35:48;6.25;;;3.03;;
21480;SDS011;10902;48.158;8.634;2023-08-01T02:38:33;7.10;;;3.25;;
21480;SDS011;10902;48.158;8.634;2023-08-01T02:41:19;6.18;;;3.63;;
21480;SDS011;10902;48.158;8.634;2023-08-01T02:44:04;7.13;;;3.13;;
21480;SDS011;10902;48.158;8.634;2023-08-01T02:46:50;9.43;;;3.50;;
21480;SDS011;10902;48.158;8.634;2023-08-01T02:49:36;5.85;;;3.03;;
21480;SDS011;10902;48.158;8.634;2023-08-01T02:52:21;5.82;;;2.70;;
21480;SDS011;10902;48.158;8.634;2023-08-01T02:55:07;6.40;;;2.75;;
21480;SDS011;10902;48.158;8.634;2023-08-01T02:57:53;5.65;;;3.03;;
21480;SDS011;10902;48.158;8.634;2023-08-01T03:00:38;6.47;;;3.20;;
21480;SDS011;10902;48.158;8.634;2023-08-01T03:03:27;7.03;;;2.80;;
21480;SDS011;10902;48.158;8.634;2023-08-01T03:06:12;7.40;;;3.38;;
21480;SDS011;10902;48.158;8.634;2023-08-01T03:08:59;5.30;;;2.42;;
21480;SDS011;10902;48.158;8.634;2023-08-01T03:11:45;6.70;;;3.10;;
21480;SDS011;10902;48.158;8.634;2023-08-01T03:14:30;7.05;;;3.30;;
21480;SDS011;10902;48.158;8.634;2023-08-01T03:17:17;6.22;;;3.13;;
21480;SDS011;10902;48.158;8.634;2023-08-01T03:20:02;6.03;;;3.28;;
21480;SDS011;10902;48.158;8.634;2023-08-01T03:22:48;6.22;;;3.05;;
21480;SDS011;10902;48.158;8.634;2023-08-01T03:25:34;8.07;;;3.13;;
21480;SDS011;10902;48.158;8.634;2023-08-01T03:28:19;6.63;;;2.80;;
21480;SDS011;10902;48.158;8.634;2023-08-01T03:31:05;6.65;;;2.72;;
21480;SDS011;10902;48.158;8.634;2023-08-01T03:33:51;7.03;;;3.20;;
21480;SDS011;10902;48.158;8.634;2023-08-01T03:36:36;7.15;;;3.03;;
21480;SDS011;10902;48.158;8.634;2023-08-01T03:39:22;6.00;;;2.83;;
21480;SDS011;10902;48.158;8.634;2023-08-01T03:42:07;6.85;;;2.97;;
21480;SDS011;10902;48.158;8.634;2023-08-01T03:44:53;8.18;;;3.30;;
21480;SDS011;10902;48.158;8.634;2023-08-01T03:47:39;5.35;;;2.83;;
21480;SDS011;10902;48.158;8.634;2023-08-01T03:50:25;11.25;;;3.95;;
21480;SDS011;10902;48.158;8.634;2023-08-01T03:53:10;7.43;;;3.13;;
21480;SDS011;10902;48.158;8.634;2023-08-01T03:55:56;7.97;;;3.33;;
21480;SDS011;10902;48.158;8.634;2023-08-01T03:58:42;6.93;;;2.97;;
21480;SDS011;10902;48.158;8.634;2023-08-01T04:01:27;7.93;;;3.20;;
21480;SDS011;10902;48.158;8.634;2023-08-01T04:04:13;8.27;;;3.47;;
21480;SDS011;10902;48.158;8.634;2023-08-01T04:06:59;7.22;;;3.30;;
21480;SDS011;10902;48.158;8.634;2023-08-01T04:09:44;6.88;;;2.72;;
21480;SDS011;10902;48.158;8.634;2023-08-01T04:12:33;7.00;;;3.00;;
21480;SDS011;10902;48.158;8.634;2023-08-01T04:15:19;8.40;;;3.15;;
21480;SDS011;10902;48.158;8.634;2023-08-01T04:18:05;6.78;;;2.95;;
21480;SDS011;10902;48.158;8.634;2023-08-01T04:20:50;6.80;;;3.28;;
21480;SDS011;10902;48.158;8.634;2023-08-01T04:23:36;6.80;;;3.15;;
21480;SDS011;10902;48.158;8.634;2023-08-01T04:26:22;6.30;;;3.20;;
21480;SDS011;10902;48.158;8.634;2023-08-01T04:29:07;8.52;;;2.90;;
21480;SDS011;10902;48.158;8.634;2023-08-01T04:31:53;7.53;;;3.53;;
21480;SDS011;10902;48.158;8.634;2023-08-01T04:34:38;6.40;;;3.45;;
21480;SDS011;10902;48.158;8.634;2023-08-01T04:37:24;6.80;;;3.22;;
21480;SDS011;10902;48.158;8.634;2023-08-01T04:40:10;6.95;;;3.45;;
21480;SDS011;10902;48.158;8.634;2023-08-01T04:42:56;8.13;;;3.75;;
21480;SDS011;10902;48.158;8.634;2023-08-01T04:45:42;7.72;;;3.40;;
21480;SDS011;10902;48.158;8.634;2023-08-01T04:48:27;6.38;;;3.22;;
21480;SDS011;10902;48.158;8.634;2023-08-01T04:51:13;9.63;;;4.03;;
21480;SDS011;10902;48.158;8.634;2023-08-01T04:53:58;8.48;;;3.70;;
21480;SDS011;10902;48.158;8.634;2023-08-01T04:56:44;5.85;;;3.20;;
21480;SDS011;10902;48.158;8.634;2023-08-01T04:59:30;7.22;;;3.78;;
21480;SDS011;10902;48.158;8.634;2023-08-01T05:02:15;9.57;;;3.80;;
21480;SDS011;10902;48.158;8.634;2023-08-01T05:05:10;8.35;;;4.30;;
21480;SDS011;10902;48.158;8.634;2023-08-01T05:07:55;8.43;;;3.67;;
21480;SDS011;10902;48.158;8.634;2023-08-01T05:10:41;8.18;;;3.97;;
21480;SDS011;10902;48.158;8.634;2023-08-01T05:13:27;7.88;;;4.10;;
21480;SDS011;10902;48.158;8.634;2023-08-01T05:16:12;8.82;;;4.53;;
21480;SDS011;10902;48.158;8.634;2023-08-01T05:18:58;8.48;;;4.00;;
21480;SDS011;10902;48.158;8.634;2023-08-01T05:21:44;10.52;;;4.35;;
21480;SDS011;10902;48.158;8.634;2023-08-01T05:24:31;7.45;;;3.83;;
21480;SDS011;10902;48.158;8.634;2023-08-01T05:27:17;9.73;;;4.93;;
21480;SDS011;10902;48.158;8.634;2023-08-01T05:30:03;9.57;;;4.53;;
21480;SDS011;10902;48.158;8.634;2023-08-01T05:32:48;8.57;;;4.57;;
21480;SDS011;10902;48.158;8.634;2023-08-01T05:35:37;6.60;;;3.97;;
21480;SDS011;10902;48.158;8.634;2023-08-01T05:38:23;8.85;;;4.63;;
21480;SDS011;10902;48.158;8.634;2023-08-01T05:41:08;10.02;;;4.88;;
21480;SDS011;10902;48.158;8.634;2023-08-01T05:43:54;10.18;;;5.07;;
21480;SDS011;10902;48.158;8.634;2023-08-01T05:46:40;7.80;;;4.07;;
21480;SDS011;10902;48.158;8.634;2023-08-01T05:49:25;7.05;;;3.90;;
21480;SDS011;10902;48.158;8.634;2023-08-01T05:52:11;7.90;;;4.20;;
21480;SDS011;10902;48.158;8.634;2023-08-01T05:54:57;8.32;;;3.88;;
21480;SDS011;10902;48.158;8.634;2023-08-01T05:57:42;6.07;;;3.72;;
21480;SDS011;10902;48.158;8.634;2023-08-01T06:00:28;7.78;;;4.00;;
21480;SDS011;10902;48.158;8.634;2023-08-01T06:03:15;7.13;;;3.50;;
21480;SDS011;10902;48.158;8.634;2023-08-01T06:06:01;7.18;;;3.60;;
21480;SDS011;10902;48.158;8.634;2023-08-01T06:08:47;7.25;;;3.53;;
21480;SDS011;10902;48.158;8.634;2023-08-01T06:11:32;7.50;;;3.63;;
21480;SDS011;10902;48.158;8.634;2023-08-01T06:14:18;5.93;;;3.13;;
21480;SDS011;10902;48.158;8.634;2023-08-01T06:17:04;7.03;;;3.55;;
21480;SDS011;10902;48.158;8.634;2023-08-01T06:19:50;7.03;;;3.47;;
21480;SDS011;10902;48.158;8.634;2023-08-01T06:22:36;6.00;;;3.00;;
21480;SDS011;10902;48.158;8.634;2023-08-01T06:25:21;8.57;;;3.95;;
21480;SDS011;10902;48.158;8.634;2023-08-01T06:28:07;7.13;;;3.53;;
21480;SDS011;10902;48.158;8.634;2023-08-01T06:30:53;6.50;;;3.35;;
21480;SDS011;10902;48.158;8.634;2023-08-01T06:33:38;7.72;;;3.75;;
21480;SDS011;10902;48.158;8.634;2023-08-01T06:36:24;7.28;;;4.10;;
21480;SDS011;10902;48.158;8.634;2023-08-01T06:39:09;7.20;;;4.05;;
21480;SDS011;10902;48.158;8.634;2023-08-01T06:41:55;8.48;;;4.53;;
21480;SDS011;10902;48.158;8.634;2023-08-01T06:44:41;7.03;;;4.00;;
21480;SDS011;10902;48.158;8.634;2023-08-01T06:47:27;6.45;;;3.83;;
21480;SDS011;10902;48.158;8.634;2023-08-01T06:50:12;6.55;;;3.53;;
21480;SDS011;10902;48.158;8.634;2023-08-01T06:52:58;6.45;;;3.83;;
21480;SDS011;10902;48.158;8.634;2023-08-01T06:55:45;7.20;;;3.67;;
21480;SDS011;10902;48.158;8.634;2023-08-01T06:58:30;6.15;;;3.28;;
21480;SDS011;10902;48.158;8.634;2023-08-01T07:01:16;6.50;;;3.40;;
21480;SDS011;10902;48.158;8.634;2023-08-01T07:04:02;6.88;;;3.47;;
21480;SDS011;10902;48.158;8.634;2023-08-01T07:06:47;6.97;;;3.25;;
21480;SDS011;10902;48.158;8.634;2023-08-01T07:09:33;5.30;;;3.03;;
21480;SDS011;10902;48.158;8.634;2023-08-01T07:12:18;8.32;;;3.42;;
21480;SDS011;10902;48.158;8.634;2023-08-01T07:15:04;5.78;;;3.42;;
21480;SDS011;10902;48.158;8.634;2023-08-01T07:17:50;6.97;;;3.65;;
21480;SDS011;10902;48.158;8.634;2023-08-01T07:20:36;6.20;;;2.85;;
21480;SDS011;10902;48.158;8.634;2023-08-01T07:23:21;5.40;;;3.20;;
21480;SDS011;10902;48.158;8.634;2023-08-01T07:26:07;7.43;;;3.80;;
21480;SDS011;10902;48.158;8.634;2023-08-01T07:28:52;6.72;;;3.38;;
21480;SDS011;10902;48.158;8.634;2023-08-01T07:31:38;7.25;;;3.60;;
21480;SDS011;10902;48.158;8.634;2023-08-01T07:34:24;6.30;;;3.30;;
21480;SDS011;10902;48.158;8.634;2023-08-01T07:37:09;6.32;;;3.13;;
21480;SDS011;10902;48.158;8.634;2023-08-01T07:39:55;6.57;;;3.60;;
21480;SDS011;10902;48.158;8.634;2023-08-01T07:42:41;5.65;;;2.83;;
21480;SDS011;10902;48.158;8.634;2023-08-01T07:45:27;6.50;;;3.58;;
21480;SDS011;10902;48.158;8.634;2023-08-01T07:48:13;6.57;;;3.17;;
21480;SDS011;10902;48.158;8.634;2023-08-01T07:50:58;5.88;;;2.97;;
21480;SDS011;10902;48.158;8.634;2023-08-01T07:53:44;6.68;;;2.90;;
21480;SDS011;10902;48.158;8.634;2023-08-01T07:56:29;6.15;;;3.30;;
21480;SDS011;10902;48.158;8.634;2023-08-01T07:59:15;5.13;;;2.75;;
21480;SDS011;10902;48.158;8.634;2023-08-01T08:02:01;5.32;;;3.05;;
21480;SDS011;10902;48.158;8.634;2023-08-01T08:04:47;5.05;;;2.70;;
21480;SDS011;10902;48.158;8.634;2023-08-01T08:07:36;5.82;;;2.70;;
21480;SDS011;10902;48.158;8.634;2023-08-01T08:10:22;6.18;;;2.90;;
21480;SDS011;10902;48.158;8.634;2023-08-01T08:13:08;5.72;;;3.00;;
21480;SDS011;10902;48.158;8.634;2023-08-01T08:15:57;7.40;;;3.45;;
21480;SDS011;10902;48.158;8.634;2023-08-01T08:18:43;5.80;;;2.78;;
21480;SDS011;10902;48.158;8.634;2023-08-01T08:21:29;6.38;;;3.20;;
21480;SDS011;10902;48.158;8.634;2023-08-01T08:24:14;7.50;;;3.50;;
21480;SDS011;10902;48.158;8.634;2023-08-01T08:27:00;6.25;;;3.70;;
21480;SDS011;10902;48.158;8.634;2023-08-01T08:29:45;7.63;;;3.63;;
21480;SDS011;10902;48.158;8.634;2023-08-01T08:32:31;7.07;;;3.53;;
21480;SDS011;10902;48.158;8.634;2023-08-01T08:35:17;7.40;;;4.00;;
21480;SDS011;10902;48.158;8.634;2023-08-01T08:38:03;7.63;;;3.97;;
21480;SDS011;10902;48.158;8.634;2023-08-01T08:43:56;8.48;;;3.33;;
21480;SDS011;10902;48.158;8.634;2023-08-01T08:46:45;6.30;;;3.08;;
21480;SDS011;10902;48.158;8.634;2023-08-01T08:49:35;6.32;;;3.58;;
21480;SDS011;10902;48.158;8.634;2023-08-01T08:52:22;7.40;;;3.00;;
21480;SDS011;10902;48.158;8.634;2023-08-01T08:55:09;7.10;;;3.65;;
21480;SDS011;10902;48.158;8.634;2023-08-01T08:57:57;6.95;;;3.03;;
21480;SDS011;10902;48.158;8.634;2023-08-01T09:00:44;5.30;;;3.30;;
21480;SDS011;10902;48.158;8.634;2023-08-01T09:03:30;7.40;;;3.72;;
21480;SDS011;10902;48.158;8.634;2023-08-01T09:06:17;6.88;;;3.30;;
21480;SDS011;10902;48.158;8.634;2023-08-01T09:09:10;6.85;;;3.28;;
21480;SDS011;10902;48.158;8.634;2023-08-01T09:11:57;7.95;;;2.90;;
21480;SDS011;10902;48.158;8.634;2023-08-01T09:14:44;8.50;;;3.03;;
21480;SDS011;10902;48.158;8.634;2023-08-01T09:17:33;6.75;;;3.20;;
21480;SDS011;10902;48.158;8.634;2023-08-01T09:20:27;6.07;;;2.90;;
21480;SDS011;10902;48.158;8.634;2023-08-01T09:23:15;5.50;;;3.03;;
21480;SDS011;10902;48.158;8.634;2023-08-01T09:26:11;6.65;;;3.15;;
21480;SDS011;10902;48.158;8.634;2023-08-01T09:29:01;6.03;;;2.92;;
21480;SDS011;10902;48.158;8.634;2023-08-01T09:31:46;5.53;;;2.95;;
21480;SDS011;10902;48.158;8.634;2023-08-01T09:34:34;5.43;;;2.78;;
21480;SDS011;10902;48.158;8.634;2023-08-01T09:37:19;6.47;;;2.92;;
21480;SDS011;10902;48.158;8.634;2023-08-01T09:40:05;6.43;;;3.08;;
21480;SDS011;10902;48.158;8.634;2023-08-01T09:42:52;6.72;;;3.15;;
21480;SDS011;10902;48.158;8.634;2023-08-01T09:45:48;7.35;;;3.33;;
21480;SDS011;10902;48.158;8.634;2023-08-01T09:48:34;7.50;;;3.70;;
21480;SDS011;10902;48.158;8.634;2023-08-01T09:51:20;5.97;;;3.13;;
21480;SDS011;10902;48.158;8.634;2023-08-01T09:54:06;6.68;;;3.60;;
21480;SDS011;10902;48.158;8.634;2023-08-01T09:56:52;6.43;;;3.22;;
21480;SDS011;10902;48.158;8.634;2023-08-01T09:59:38;5.75;;;3.15;;
21480;SDS011;10902;48.158;8.634;2023-08-01T10:02:26;5.78;;;3.53;;
21480;SDS011;10902;48.158;8.634;2023-08-01T10:05:14;7.15;;;3.55;;
21480;SDS011;10902;48.158;8.634;2023-08-01T10:08:00;7.47;;;3.65;;
21480;SDS011;10902;48.158;8.634;2023-08-01T10:10:48;6.90;;;3.35;;
21480;SDS011;10902;48.158;8.634;2023-08-01T10:13:34;6.80;;;3.13;;
21480;SDS011;10902;48.158;8.634;2023-08-01T10:16:21;6.25;;;3.42;;
21480;SDS011;10902;48.158;8.634;2023-08-01T10:19:07;6.03;;;3.40;;
21480;SDS011;10902;48.158;8.634;2023-08-01T10:21:54;6.82;;;3.65;;
21480;SDS011;10902;48.158;8.634;2023-08-01T10:24:43;6.90;;;2.95;;
21480;SDS011;10902;48.158;8.634;2023-08-01T10:27:38;5.22;;;2.90;;
21480;SDS011;10902;48.158;8.634;2023-08-01T10:30:30;6.07;;;2.80;;
21480;SDS011;10902;48.158;8.634;2023-08-01T10:33:16;6.28;;;2.58;;
21480;SDS011;10902;48.158;8.634;2023-08-01T10:36:11;8.18;;;3.15;;
21480;SDS011;10902;48.158;8.634;2023-08-01T10:39:02;5.55;;;2.65;;
21480;SDS011;10902;48.158;8.634;2023-08-01T10:41:56;5.40;;;2.15;;
21480;SDS011;10902;48.158;8.634;2023-08-01T10:44:58;4.10;;;1.60;;
21480;SDS011;10902;48.158;8.634;2023-08-01T10:47:47;4.40;;;1.38;;
21480;SDS011;10902;48.158;8.634;2023-08-01T10:50:34;3.50;;;1.08;;
21480;SDS011;10902;48.158;8.634;2023-08-01T10:53:39;2.85;;;0.60;;
21480;SDS011;10902;48.158;8.634;2023-08-01T10:56:25;2.10;;;0.70;;
21480;SDS011;10902;48.158;8.634;2023-08-01T10:59:12;3.10;;;0.90;;
21480;SDS011;10902;48.158;8.634;2023-08-01T11:01:59;1.80;;;0.65;;
21480;SDS011;10902;48.158;8.634;2023-08-01T11:04:54;1.88;;;0.60;;
21480;SDS011;10902;48.158;8.634;2023-08-01T11:07:54;1.85;;;0.68;;
21480;SDS011;10902;48.158;8.634;2023-08-01T11:10:48;2.40;;;0.55;;
21480;SDS011;10902;48.158;8.634;2023-08-01T11:13:34;2.80;;;0.63;;
21480;SDS011;10902;48.158;8.634;2023-08-01T11:16:21;3.90;;;0.70;;
21480;SDS011;10902;48.158;8.634;2023-08-01T11:19:17;2.67;;;0.70;;
21480;SDS011;10902;48.158;8.634;2023-08-01T11:22:08;3.00;;;1.20;;
21480;SDS011;10902;48.158;8.634;2023-08-01T11:24:54;3.65;;;0.68;;
21480;SDS011;10902;48.158;8.634;2023-08-01T11:27:40;4.35;;;1.00;;
21480;SDS011;10902;48.158;8.634;2023-08-01T11:30:32;3.45;;;0.70;;
21480;SDS011;10902;48.158;8.634;2023-08-01T11:33:22;4.05;;;0.80;;
21480;SDS011;10902;48.158;8.634;2023-08-01T11:36:12;2.50;;;0.80;;
21480;SDS011;10902;48.158;8.634;2023-08-01T11:40:06;2.30;;;0.80;;
21480;SDS011;10902;48.158;8.634;2023-08-01T11:43:38;2.00;;;0.63;;
21480;SDS011;10902;48.158;8.634;2023-08-01T11:46:30;2.78;;;0.90;;
21480;SDS011;10902;48.158;8.634;2023-08-01T11:49:16;3.15;;;0.88;;
21480;SDS011;10902;48.158;8.634;2023-08-01T11:52:02;3.70;;;0.90;;
21480;SDS011;10902;48.158;8.634;2023-08-01T11:54:48;3.67;;;0.88;;
21480;SDS011;10902;48.158;8.634;2023-08-01T11:57:34;2.55;;;0.75;;
21480;SDS011;10902;48.158;8.634;2023-08-01T12:00:27;2.33;;;0.70;;
21480;SDS011;10902;48.158;8.634;2023-08-01T12:03:13;2.42;;;0.68;;
21480;SDS011;10902;48.158;8.634;2023-08-01T12:06:03;2.58;;;1.05;;
21480;SDS011;10902;48.158;8.634;2023-08-01T12:08:50;2.15;;;0.80;;
21480;SDS011;10902;48.158;8.634;2023-08-01T12:11:37;1.23;;;0.40;;
21480;SDS011;10902;48.158;8.634;2023-08-01T12:14:24;2.45;;;0.70;;
21480;SDS011;10902;48.158;8.634;2023-08-01T12:21:27;1.77;;;0.60;;
21480;SDS011;10902;48.158;8.634;2023-08-01T12:24:15;2.13;;;0.50;;
21480;SDS011;10902;48.158;8.634;2023-08-01T12:27:01;1.92;;;0.50;;
21480;SDS011;10902;48.158;8.634;2023-08-01T12:29:47;1.73;;;0.60;;
21480;SDS011;10902;48.158;8.634;2023-08-01T12:32:32;1.63;;;0.55;;
21480;SDS011;10902;48.158;8.634;2023-08-01T12:35:20;2.42;;;0.75;;
21480;SDS011;10902;48.158;8.634;2023-08-01T12:38:05;2.05;;;0.70;;
21480;SDS011;10902;48.158;8.634;2023-08-01T12:40:51;2.00;;;0.70;;
21480;SDS011;10902;48.158;8.634;2023-08-01T12:43:37;2.30;;;0.80;;
21480;SDS011;10902;48.158;8.634;2023-08-01T12:46:22;1.70;;;0.60;;
21480;SDS011;10902;48.158;8.634;2023-08-01T12:49:08;1.60;;;0.50;;
21480;SDS011;10902;48.158;8.634;2023-08-01T12:51:54;2.38;;;0.70;;
21480;SDS011;10902;48.158;8.634;2023-08-01T12:54:39;1.95;;;0.60;;
21480;SDS011;10902;48.158;8.634;2023-08-01T12:57:25;1.38;;;0.50;;
21480;SDS011;10902;48.158;8.634;2023-08-01T13:00:11;2.08;;;0.60;;
21480;SDS011;10902;48.158;8.634;2023-08-01T13:02:57;1.38;;;0.40;;
21480;SDS011;10902;48.158;8.634;2023-08-01T13:05:42;1.77;;;0.60;;
21480;SDS011;10902;48.158;8.634;2023-08-01T13:08:28;2.35;;;0.50;;
21480;SDS011;10902;48.158;8.634;2023-08-01T13:11:14;2.45;;;0.68;;
21480;SDS011;10902;48.158;8.634;2023-08-01T13:14:00;1.90;;;0.52;;
21480;SDS011;10902;48.158;8.634;2023-08-01T13:16:45;2.17;;;0.68;;
21480;SDS011;10902;48.158;8.634;2023-08-01T13:19:31;2.20;;;0.55;;
21480;SDS011;10902;48.158;8.634;2023-08-01T13:22:17;1.35;;;0.45;;
21480;SDS011;10902;48.158;8.634;2023-08-01T13:25:03;1.30;;;0.50;;
21480;SDS011;10902;48.158;8.634;2023-08-01T13:27:49;3.15;;;0.55;;
21480;SDS011;10902;48.158;8.634;2023-08-01T13:30:34;1.75;;;0.40;;
21480;SDS011;10902;48.158;8.634;2023-08-01T13:33:20;2.13;;;0.60;;
21480;SDS011;10902;48.158;8.634;2023-08-01T13:36:05;2.55;;;0.57;;
21480;SDS011;10902;48.158;8.634;2023-08-01T13:38:51;1.75;;;0.70;;
21480;SDS011;10902;48.158;8.634;2023-08-01T13:41:37;2.45;;;0.60;;
21480;SDS011;10902;48.158;8.634;2023-08-01T13:44:22;1.63;;;0.47;;
21480;SDS011;10902;48.158;8.634;2023-08-01T13:47:08;2.97;;;0.60;;
21480;SDS011;10902;48.158;8.634;2023-08-01T13:49:54;2.15;;;0.63;;
21480;SDS011;10902;48.158;8.634;2023-08-01T13:52:39;1.15;;;0.50;;
21480;SDS011;10902;48.158;8.634;2023-08-01T13:55:26;1.58;;;0.57;;
21480;SDS011;10902;48.158;8.634;2023-08-01T13:58:12;1.55;;;0.52;;
21480;SDS011;10902;48.158;8.634;2023-08-01T14:01:04;2.28;;;0.50;;
21480;SDS011;10902;48.158;8.634;2023-08-01T14:03:52;1.80;;;0.40;;
21480;SDS011;10902;48.158;8.634;2023-08-01T14:06:37;1.85;;;0.52;;
21480;SDS011;10902;48.158;8.634;2023-08-01T14:09:26;1.77;;;0.50;;
21480;SDS011;10902;48.158;8.634;2023-08-01T14:12:11;2.58;;;0.70;;
21480;SDS011;10902;48.158;8.634;2023-08-01T14:14:57;2.05;;;0.60;;
21480;SDS011;10902;48.158;8.634;2023-08-01T14:17:42;2.72;;;0.60;;
21480;SDS011;10902;48.158;8.634;2023-08-01T14:20:28;2.20;;;0.60;;
21480;SDS011;10902;48.158;8.634;2023-08-01T14:23:14;3.22;;;0.52;;
21480;SDS011;10902;48.158;8.634;2023-08-01T14:25:59;1.38;;;0.50;;
21480;SDS011;10902;48.158;8.634;2023-08-01T14:28:45;1.88;;;0.50;;
21480;SDS011;10902;48.158;8.634;2023-08-01T14:31:31;1.48;;;0.40;;
21480;SDS011;10902;48.158;8.634;2023-08-01T14:34:17;1.80;;;0.68;;
21480;SDS011;10902;48.158;8.634;2023-08-01T14:37:02;1.77;;;0.50;;
21480;SDS011;10902;48.158;8.634;2023-08-01T14:39:48;1.95;;;0.50;;
21480;SDS011;10902;48.158;8.634;2023-08-01T14:42:34;2.42;;;0.50;;
21480;SDS011;10902;48.158;8.634;2023-08-01T14:45:19;1.63;;;0.50;;
21480;SDS011;10902;48.158;8.634;2023-08-01T14:48:06;1.70;;;0.50;;
21480;SDS011;10902;48.158;8.634;2023-08-01T14:50:52;2.03;;;0.60;;
21480;SDS011;10902;48.158;8.634;2023-08-01T14:53:38;1.90;;;0.50;;
21480;SDS011;10902;48.158;8.634;2023-08-01T14:56:23;2.03;;;0.65;;
21480;SDS011;10902;48.158;8.634;2023-08-01T14:59:09;2.22;;;0.60;;
21480;SDS011;10902;48.158;8.634;2023-08-01T15:01:55;3.00;;;0.80;;
21480;SDS011;10902;48.158;8.634;2023-08-01T15:04:40;2.05;;;0.60;;
21480;SDS011;10902;48.158;8.634;2023-08-01T15:07:26;2.95;;;0.60;;
21480;SDS011;10902;48.158;8.634;2023-08-01T15:10:12;2.95;;;0.95;;
21480;SDS011;10902;48.158;8.634;2023-08-01T15:12:57;1.75;;;0.63;;
21480;SDS011;10902;48.158;8.634;2023-08-01T15:15:43;2.38;;;0.77;;
21480;SDS011;10902;48.158;8.634;2023-08-01T15:18:28;1.95;;;0.65;;
21480;SDS011;10902;48.158;8.634;2023-08-01T15:21:14;1.92;;;0.75;;
21480;SDS011;10902;48.158;8.634;2023-08-01T15:24:00;2.55;;;0.80;;
21480;SDS011;10902;48.158;8.634;2023-08-01T15:26:45;2.15;;;0.80;;
21480;SDS011;10902;48.158;8.634;2023-08-01T15:29:31;1.63;;;0.60;;
21480;SDS011;10902;48.158;8.634;2023-08-01T15:32:16;3.75;;;1.00;;
21480;SDS011;10902;48.158;8.634;2023-08-01T15:35:02;5.20;;;1.10;;
21480;SDS011;10902;48.158;8.634;2023-08-01T15:37:48;2.45;;;0.88;;
21480;SDS011;10902;48.158;8.634;2023-08-01T15:40:34;2.60;;;0.90;;
21480;SDS011;10902;48.158;8.634;2023-08-01T15:43:19;3.08;;;0.80;;
21480;SDS011;10902;48.158;8.634;2023-08-01T15:46:06;3.00;;;1.25;;
21480;SDS011;10902;48.158;8.634;2023-08-01T15:48:52;2.55;;;0.70;;
21480;SDS011;10902;48.158;8.634;2023-08-01T15:51:38;2.78;;;0.90;;
21480;SDS011;10902;48.158;8.634;2023-08-01T15:54:23;2.70;;;0.85;;
21480;SDS011;10902;48.158;8.634;2023-08-01T15:57:09;2.58;;;0.90;;
21480;SDS011;10902;48.158;8.634;2023-08-01T15:59:55;2.17;;;0.60;;
21480;SDS011;10902;48.158;8.634;2023-08-01T16:02:40;2.00;;;0.63;;
21480;SDS011;10902;48.158;8.634;2023-08-01T16:05:26;2.40;;;0.70;;
21480;SDS011;10902;48.158;8.634;2023-08-01T16:08:12;2.45;;;1.00;;
21480;SDS011;10902;48.158;8.634;2023-08-01T16:11:00;2.97;;;1.00;;
21480;SDS011;10902;48.158;8.634;2023-08-01T16:13:47;2.83;;;0.95;;
21480;SDS011;10902;48.158;8.634;2023-08-01T16:16:32;2.55;;;0.98;;
21480;SDS011;10902;48.158;8.634;2023-08-01T16:19:18;3.00;;;0.88;;
21480;SDS011;10902;48.158;8.634;2023-08-01T16:22:04;2.50;;;0.90;;
21480;SDS011;10902;48.158;8.634;2023-08-01T16:24:49;2.70;;;0.93;;
21480;SDS011;10902;48.158;8.634;2023-08-01T16:27:35;2.90;;;0.80;;
21480;SDS011;10902;48.158;8.634;2023-08-01T16:30:21;3.00;;;1.08;;
21480;SDS011;10902;48.158;8.634;2023-08-01T16:33:06;2.30;;;0.90;;
21480;SDS011;10902;48.158;8.634;2023-08-01T16:35:52;3.38;;;0.90;;
21480;SDS011;10902;48.158;8.634;2023-08-01T16:38:38;2.17;;;0.90;;
21480;SDS011;10902;48.158;8.634;2023-08-01T16:41:23;3.58;;;0.88;;
21480;SDS011;10902;48.158;8.634;2023-08-01T16:44:09;3.03;;;1.00;;
21480;SDS011;10902;48.158;8.634;2023-08-01T16:46:54;2.10;;;0.80;;
21480;SDS011;10902;48.158;8.634;2023-08-01T16:49:40;3.85;;;1.23;;
21480;SDS011;10902;48.158;8.634;2023-08-01T16:52:30;3.03;;;1.10;;